Saint Eustatius, St. Eustatius

3:00 PM AST on July 29, 2015 (GMT -0400)
IDUTCHCA4 | | Change Station
CLOSE
Current Station
Personal Weather Station
Location: Oranjestad, DUTCH CARIBBEAN
Elevation: 575 ft
Nearby Weather Stations

Elev 575 ft 17.48 °N, 62.97 °W | Updated 15 seconds ago

Partly Cloudy
Partly Cloudy
88.2 °F
Feels Like 96 °F
N
2.0
Wind Variable Wind from NW

Today
High -- | Low -- °F
--% Chance of Precip.
Yesterday
High -- | Low -- °F
Precip. -- in
5:50 AM 6:46 PM
Waxing Gibbous, 96% visible
Pressure 30.01 in
Visibility 6.2 miles
Clouds Few 2300 ft
Heat Index 96 °F
Dew Point 73 °F
Humidity 61%
Rainfall 0.00 in
Snow Depth Not available.
UV 5.2 out of 12
Pollen Not available.
Air Quality Not available.
Flu Activity Not available.
METAR TKPK 291800Z 06011KT 9999 FEW023 31/22 Q1016

More Conditions Fewer Conditions

Pressure 30.01 in
Visibility 6.2 miles
Clouds Few 2300 ft
Heat Index 96 °F
Dew Point 73 °F
Humidity 61%
Rainfall 0.00 in
Snow Depth Not available.
UV 5.2 out of 12
Pollen Not available.
Air Quality Not available.
Flu Activity Not available.
METAR TKPK 291800Z 06011KT 9999 FEW023 31/22 Q1016

More Conditions Fewer Conditions

10-Day Weather Forecast

×

Almanac

Astronomy

Jul. 29, 2015 Rise Set
Actual Time
Civil Twilight
Nautical Twilight
Astronomical Twilight
Moon
Length of Visible Light
Length of Day
Tomorrow will be .
, % of the Moon is Illuminated

Today's Extremes

Country Highs Country Lows

Community

WunderPhotos

Upload Photos

1,842,152 photos uploaded!

WunderBlogs® & News

Nearby

Air Quality

  Air Quality AQ Index Pollutant
Not available.

Snow Depth

Station Depth Elevation

Earthquake Activity

City Distance Mag. Time & Date
Minimum magnitude displayed is 2.5.

Coastal Water Temperatures

Place Temperature

Stations

Nearby Weather Stations

Station Location Temp. Windchill Dew Point Humidity Wind Precip. Elev Updated Type